KSVN/SVN METAR and TAF weather

Enter ICAO airport designator
Station Type Date Time Source
KSVN METAR 2019/10/23 01:56 UTC NOAA

KSVN 230156Z AUTO 26007KT 10SM CLR 20/12 A2996 RMK AO2 SLP148 T01960116 $


Station Type Date Time Source
KSVN Decoded METAR 2019/10/23 01:56 UTC NOAA

Hunter U. S. Army Airfield , GA, United States (KSVN) 32-01N 081-09W
Oct 22, 2019 - 09:56 PM EDT / 2019.10.23 0156 UTC
Wind: from the W (260 degrees) at 8 MPH (7 KT):0
Visibility: 10 mile(s):0
Sky conditions: clear
Temperature: 67.3 F (19.6 C)
Dew Point: 52.9 F (11.6 C)
Relative Humidity: 59%
Pressure (altimeter): 29.96 in. Hg (1014 hPa)
ob: KSVN 230156Z AUTO 26007KT 10SM CLR 20/12 A2996 RMK AO2 SLP148 T01960116
cycle: 2

Station Type Date Time Source
KSVN TAF 2019/10/22 21:45 UTC NOAA

TAF
AMD KSVN 222140Z 2221/2402 26009KT 9999 SCT035 BKN130 QNH2984INS
BECMG 2223/2224 28009KT 9999 FEW065 SCT085 QNH2989INS
BECMG 2305/2306 VRB06KT 9999 FEW070 QNH3006INS TX30/2320Z TN12/2312Z

Example: see airport list